createdAt,value
2022-08-08T00:00:50.607Z,1019.59
2022-08-08T00:00:55.093Z,1019.60
2022-08-08T00:02:03.296Z,1019.57
2022-08-08T00:02:33.582Z,1019.61
2022-08-08T00:03:33.135Z,1019.57
2022-08-08T00:04:33.447Z,1019.58
2022-08-08T00:05:44.064Z,1019.57
2022-08-08T00:06:34.727Z,1019.55
2022-08-08T00:07:32.850Z,1019.52
2022-08-08T00:08:33.131Z,1019.53
2022-08-08T00:09:33.154Z,1019.53
2022-08-08T00:10:32.992Z,1019.55
2022-08-08T00:11:46.098Z,1019.52
2022-08-08T00:12:32.572Z,1019.53
2022-08-08T00:14:16.429Z,1019.51
2022-08-08T00:14:54.690Z,1019.54
2022-08-08T00:15:57.301Z,1019.50
2022-08-08T00:16:32.952Z,1019.54
2022-08-08T00:17:48.014Z,1019.52
2022-08-08T00:18:32.889Z,1019.55
2022-08-08T00:19:32.980Z,1019.59
2022-08-08T00:20:32.453Z,1019.57
2022-08-08T00:21:39.725Z,1019.55
2022-08-08T00:22:32.169Z,1019.59
2022-08-08T00:23:43.000Z,1019.59
2022-08-08T00:24:31.925Z,1019.57
2022-08-08T00:26:32.087Z,1019.60
2022-08-08T00:27:32.823Z,1019.64
2022-08-08T00:28:35.386Z,1019.57
2022-08-08T00:29:44.968Z,1019.54
2022-08-08T00:30:31.486Z,1019.56
2022-08-08T00:32:20.426Z,1019.56
2022-08-08T00:32:40.377Z,1019.57
2022-08-08T00:34:35.682Z,1019.57
2022-08-08T00:35:37.443Z,1019.56
2022-08-08T00:36:35.536Z,1019.56
2022-08-08T00:37:47.484Z,1019.53
2022-08-08T00:38:44.508Z,1019.56
2022-08-08T00:41:07.708Z,1019.57
2022-08-08T00:41:12.289Z,1019.53
2022-08-08T00:41:54.425Z,1019.51
2022-08-08T00:42:36.897Z,1019.55
2022-08-08T00:43:41.073Z,1019.56
2022-08-08T00:44:35.062Z,1019.58
2022-08-08T00:45:34.987Z,1019.54
2022-08-08T00:46:56.903Z,1019.54
2022-08-08T00:47:36.829Z,1019.55
2022-08-08T00:48:34.807Z,1019.53
2022-08-08T00:49:34.746Z,1019.56
2022-08-08T00:50:34.682Z,1019.57
2022-08-08T00:51:38.221Z,1019.57
2022-08-08T00:52:40.262Z,1019.57
2022-08-08T00:53:43.700Z,1019.58
2022-08-08T00:54:34.432Z,1019.56
2022-08-08T00:55:36.039Z,1019.60
2022-08-08T00:56:34.312Z,1019.56
2022-08-08T00:57:36.192Z,1019.57
2022-08-08T00:58:34.642Z,1019.58
2022-08-08T00:59:43.779Z,1019.59
2022-08-08T01:00:37.771Z,1019.59
2022-08-08T01:01:38.146Z,1019.59
2022-08-08T01:03:57.292Z,1019.58
2022-08-08T01:04:00.774Z,1019.59
2022-08-08T01:04:33.821Z,1019.58
2022-08-08T01:05:58.921Z,1019.60
2022-08-08T01:06:33.700Z,1019.58
2022-08-08T01:07:34.602Z,1019.60
2022-08-08T01:08:33.576Z,1019.61
2022-08-08T01:09:35.693Z,1019.56
2022-08-08T01:10:33.457Z,1019.57
2022-08-08T01:11:33.395Z,1019.56
2022-08-08T01:12:33.513Z,1019.55
2022-08-08T01:13:43.448Z,1019.54
2022-08-08T01:14:54.051Z,1019.52
2022-08-08T01:15:43.556Z,1019.58
2022-08-08T01:16:33.116Z,1019.55
2022-08-08T01:17:52.022Z,1019.53
2022-08-08T01:18:52.513Z,1019.49
2022-08-08T01:19:51.968Z,1019.50
2022-08-08T01:20:32.844Z,1019.53
2022-08-08T01:21:36.933Z,1019.53
2022-08-08T01:22:32.722Z,1019.50
2022-08-08T01:24:06.051Z,1019.56
2022-08-08T01:24:32.628Z,1019.52
2022-08-08T01:25:40.708Z,1019.53
2022-08-08T01:26:32.472Z,1019.54
2022-08-08T01:27:33.122Z,1019.60
2022-08-08T01:28:32.362Z,1019.57
2022-08-08T01:29:35.127Z,1019.57
2022-08-08T01:30:32.226Z,1019.54
2022-08-08T01:32:12.956Z,1019.52
2022-08-08T01:32:32.274Z,1019.53
2022-08-08T01:33:42.863Z,1019.57
2022-08-08T01:34:31.985Z,1019.52
2022-08-08T01:35:31.923Z,1019.51
2022-08-08T01:36:31.860Z,1019.55
2022-08-08T01:37:57.120Z,1019.52
2022-08-08T01:38:31.908Z,1019.50
2022-08-08T01:39:35.142Z,1019.53
2022-08-08T01:40:31.615Z,1019.48
2022-08-08T01:41:34.372Z,1019.48
2022-08-08T01:42:36.647Z,1019.50
2022-08-08T01:43:34.647Z,1019.51
2022-08-08T01:44:31.366Z,1019.54
2022-08-08T01:45:31.308Z,1019.50
2022-08-08T01:46:31.246Z,1019.50
2022-08-08T01:48:16.812Z,1019.52
2022-08-08T01:48:31.771Z,1019.53
2022-08-08T01:49:37.449Z,1019.51
2022-08-08T01:50:36.043Z,1019.56
2022-08-08T01:52:33.485Z,1019.50
2022-08-08T01:53:14.978Z,1019.46
2022-08-08T01:55:17.536Z,1019.44
2022-08-08T01:55:26.312Z,1019.42
2022-08-08T01:56:29.079Z,1019.44
2022-08-08T01:56:34.534Z,1019.44
2022-08-08T01:58:11.034Z,1019.46
2022-08-08T01:58:35.922Z,1019.43
2022-08-08T01:59:37.884Z,1019.40
2022-08-08T02:00:30.386Z,1019.40
2022-08-08T02:01:54.785Z,1019.34
2022-08-08T02:02:34.381Z,1019.38
2022-08-08T02:03:55.537Z,1019.39
2022-08-08T02:04:30.149Z,1019.37
2022-08-08T02:05:33.917Z,1019.38
2022-08-08T02:06:33.146Z,1019.39
2022-08-08T02:07:41.692Z,1019.38
2022-08-08T02:08:33.762Z,1019.35
2022-08-08T02:10:02.823Z,1019.32
2022-08-08T02:10:44.491Z,1019.39
2022-08-08T02:11:52.986Z,1019.39
2022-08-08T02:12:30.027Z,1019.41
2022-08-08T02:13:53.055Z,1019.38
2022-08-08T02:14:29.524Z,1019.38
2022-08-08T02:15:29.465Z,1019.36
2022-08-08T02:16:29.408Z,1019.37
2022-08-08T02:17:36.737Z,1019.35
2022-08-08T02:18:29.282Z,1019.35
2022-08-08T02:20:07.611Z,1019.36
2022-08-08T02:21:00.877Z,1019.32
2022-08-08T02:21:29.098Z,1019.35
2022-08-08T02:22:31.294Z,1019.35
2022-08-08T02:23:32.181Z,1019.34
2022-08-08T02:24:28.946Z,1019.31
2022-08-08T02:25:33.109Z,1019.35
2022-08-08T02:26:28.789Z,1019.37
2022-08-08T02:27:28.735Z,1019.42
2022-08-08T02:28:35.404Z,1019.42
2022-08-08T02:29:41.548Z,1019.40
2022-08-08T02:30:28.550Z,1019.36
2022-08-08T02:31:58.390Z,1019.41
2022-08-08T02:32:28.429Z,1019.38
2022-08-08T02:34:00.359Z,1019.47
2022-08-08T02:34:33.212Z,1019.41
2022-08-08T02:35:28.453Z,1019.42
2022-08-08T02:36:28.540Z,1019.42
2022-08-08T02:37:53.281Z,1019.47
2022-08-08T02:38:30.270Z,1019.48
2022-08-08T02:39:41.997Z,1019.48
2022-08-08T02:40:28.142Z,1019.43
2022-08-08T02:41:59.157Z,1019.43
2022-08-08T02:42:35.945Z,1019.44
2022-08-08T02:44:42.357Z,1019.42
2022-08-08T02:44:42.553Z,1019.42
2022-08-08T02:45:27.619Z,1019.42
2022-08-08T02:46:27.576Z,1019.42
2022-08-08T02:47:27.496Z,1019.40
2022-08-08T02:48:27.571Z,1019.42
2022-08-08T02:49:51.233Z,1019.40
2022-08-08T02:50:27.314Z,1019.46
2022-08-08T02:51:38.309Z,1019.42
2022-08-08T02:52:35.051Z,1019.45
2022-08-08T02:53:27.135Z,1019.44
2022-08-08T02:54:27.918Z,1019.48
2022-08-08T02:55:29.494Z,1019.45
2022-08-08T02:56:26.947Z,1019.45
2022-08-08T02:57:26.893Z,1019.41
2022-08-08T02:58:26.912Z,1019.45
2022-08-08T02:59:37.136Z,1019.45
2022-08-08T03:00:31.215Z,1019.47
2022-08-08T03:01:26.693Z,1019.47
2022-08-08T03:02:30.283Z,1019.46
2022-08-08T03:05:01.043Z,1019.47
2022-08-08T03:05:03.523Z,1019.48
2022-08-08T03:05:26.399Z,1019.49
2022-08-08T03:06:34.937Z,1019.50
2022-08-08T03:07:26.298Z,1019.51
2022-08-08T03:08:26.200Z,1019.49
2022-08-08T03:09:28.561Z,1019.52
2022-08-08T03:10:32.438Z,1019.49
2022-08-08T03:11:29.378Z,1019.51
2022-08-08T03:12:36.541Z,1019.51
2022-08-08T03:13:34.144Z,1019.54
2022-08-08T03:15:58.851Z,1019.55
2022-08-08T03:16:00.049Z,1019.55
2022-08-08T03:16:35.217Z,1019.56
2022-08-08T03:17:39.774Z,1019.53
2022-08-08T03:18:30.716Z,1019.55
2022-08-08T03:19:25.519Z,1019.55
2022-08-08T03:20:25.465Z,1019.54
2022-08-08T03:21:40.921Z,1019.62
2022-08-08T03:22:38.692Z,1019.58
2022-08-08T03:23:30.342Z,1019.58
2022-08-08T03:24:25.211Z,1019.58
2022-08-08T03:25:34.106Z,1019.56
2022-08-08T03:26:25.091Z,1019.53
2022-08-08T03:27:27.224Z,1019.60
2022-08-08T03:28:24.988Z,1019.56
2022-08-08T03:29:51.291Z,1019.58
2022-08-08T03:30:24.886Z,1019.54
2022-08-08T03:31:25.739Z,1019.54
2022-08-08T03:32:29.010Z,1019.60
2022-08-08T03:33:56.196Z,1019.61
2022-08-08T03:34:24.598Z,1019.59
2022-08-08T03:35:24.536Z,1019.58
2022-08-08T03:36:27.495Z,1019.58
2022-08-08T03:38:54.531Z,1019.55
2022-08-08T03:38:55.894Z,1019.56
2022-08-08T03:39:24.383Z,1019.53
2022-08-08T03:40:29.758Z,1019.54
2022-08-08T03:42:04.172Z,1019.56
2022-08-08T03:42:38.786Z,1019.55
2022-08-08T03:43:24.040Z,1019.60
2022-08-08T03:44:25.511Z,1019.60
2022-08-08T03:46:04.963Z,1019.60
2022-08-08T03:46:25.502Z,1019.60
2022-08-08T03:47:23.809Z,1019.60
2022-08-08T03:49:09.098Z,1019.59
2022-08-08T03:49:57.497Z,1019.59
2022-08-08T03:50:24.810Z,1019.63
2022-08-08T03:51:40.539Z,1019.63
2022-08-08T03:52:23.503Z,1019.63
2022-08-08T03:53:24.238Z,1019.67
2022-08-08T03:54:40.548Z,1019.70
2022-08-08T03:55:57.428Z,1019.71
2022-08-08T03:56:31.924Z,1019.73
2022-08-08T03:58:33.830Z,1019.72
2022-08-08T03:58:34.251Z,1019.76
2022-08-08T03:59:23.386Z,1019.74
2022-08-08T04:00:26.171Z,1019.73
2022-08-08T04:01:26.117Z,1019.73
2022-08-08T04:02:51.931Z,1019.75
2022-08-08T04:03:57.035Z,1019.79
2022-08-08T04:04:23.150Z,1019.75
2022-08-08T04:05:28.029Z,1019.73
2022-08-08T04:06:22.635Z,1019.74
2022-08-08T04:07:22.559Z,1019.75
2022-08-08T04:08:32.917Z,1019.74
2022-08-08T04:09:22.444Z,1019.73
2022-08-08T04:10:22.382Z,1019.75
2022-08-08T04:11:23.696Z,1019.76
2022-08-08T04:12:22.723Z,1019.80
2022-08-08T04:13:22.209Z,1019.74
2022-08-08T04:14:34.108Z,1019.78
2022-08-08T04:15:22.359Z,1019.80
2022-08-08T04:16:22.001Z,1019.77
2022-08-08T04:17:46.707Z,1019.77
2022-08-08T04:18:21.871Z,1019.77
2022-08-08T04:19:23.613Z,1019.80
2022-08-08T04:20:21.745Z,1019.82
2022-08-08T04:21:23.377Z,1019.82
2022-08-08T04:22:24.029Z,1019.83
2022-08-08T04:23:21.579Z,1019.84
2022-08-08T04:24:29.430Z,1019.85
2022-08-08T04:25:21.439Z,1019.85
2022-08-08T04:26:21.383Z,1019.86
2022-08-08T04:28:02.451Z,1019.86
2022-08-08T04:28:36.192Z,1019.86
2022-08-08T04:29:21.195Z,1019.91
2022-08-08T04:30:21.131Z,1019.88
2022-08-08T04:31:56.954Z,1019.89
2022-08-08T04:32:30.922Z,1019.91
2022-08-08T04:33:20.950Z,1019.88
2022-08-08T04:34:20.890Z,1019.92
2022-08-08T04:35:22.859Z,1019.93
2022-08-08T04:36:20.796Z,1019.90
2022-08-08T04:37:20.710Z,1019.92
2022-08-08T04:38:21.951Z,1019.93
2022-08-08T04:40:03.905Z,1019.96
2022-08-08T04:40:24.171Z,1019.97
2022-08-08T04:41:21.579Z,1019.99
2022-08-08T04:42:20.390Z,1020.01
2022-08-08T04:43:20.327Z,1020.00
2022-08-08T04:44:20.276Z,1020.02
2022-08-08T04:45:20.218Z,1020.08
2022-08-08T04:46:20.139Z,1020.05
2022-08-08T04:47:20.084Z,1020.07
2022-08-08T04:48:21.717Z,1020.04
2022-08-08T04:49:19.958Z,1020.12
2022-08-08T04:50:24.815Z,1020.10
2022-08-08T04:51:27.909Z,1020.08
2022-08-08T04:52:19.773Z,1020.11
2022-08-08T04:54:27.047Z,1020.11
2022-08-08T04:54:38.364Z,1020.08
2022-08-08T04:55:19.589Z,1020.07
2022-08-08T04:56:19.562Z,1020.08
2022-08-08T04:57:19.469Z,1020.09
2022-08-08T04:58:19.410Z,1020.05
2022-08-08T04:59:19.354Z,1020.08
2022-08-08T05:00:19.462Z,1020.08
2022-08-08T05:01:19.257Z,1020.08
2022-08-08T05:02:20.195Z,1020.08
2022-08-08T05:04:09.238Z,1020.09
2022-08-08T05:04:19.045Z,1020.08
2022-08-08T05:05:20.457Z,1020.10
2022-08-08T05:06:28.080Z,1020.09
2022-08-08T05:07:18.855Z,1020.09
2022-08-08T05:08:18.789Z,1020.08
2022-08-08T05:09:18.737Z,1020.10
2022-08-08T05:10:18.670Z,1020.10
2022-08-08T05:11:23.135Z,1020.06
2022-08-08T05:12:20.311Z,1020.11
2022-08-08T05:13:18.473Z,1020.10
2022-08-08T05:14:20.743Z,1020.09
2022-08-08T05:15:18.361Z,1020.07
2022-08-08T05:16:55.311Z,1020.10
2022-08-08T05:17:18.293Z,1020.11
2022-08-08T05:18:18.176Z,1020.11
2022-08-08T05:20:12.407Z,1020.09
2022-08-08T05:20:18.053Z,1020.08
2022-08-08T05:21:19.211Z,1020.12
2022-08-08T05:22:18.059Z,1020.09
2022-08-08T05:23:17.874Z,1020.12
2022-08-08T05:24:17.838Z,1020.09
2022-08-08T05:25:17.740Z,1020.09
2022-08-08T05:26:19.718Z,1020.14
2022-08-08T05:27:17.621Z,1020.10
2022-08-08T05:28:56.680Z,1020.13
2022-08-08T05:29:17.491Z,1020.15
2022-08-08T05:30:17.431Z,1020.14
2022-08-08T05:32:02.553Z,1020.13
2022-08-08T05:32:17.337Z,1020.13
2022-08-08T05:33:17.847Z,1020.12
2022-08-08T05:34:17.202Z,1020.18
2022-08-08T05:35:17.123Z,1020.15
2022-08-08T05:36:25.049Z,1020.15
2022-08-08T05:37:19.078Z,1020.16
2022-08-08T05:38:30.234Z,1020.16
2022-08-08T05:39:16.926Z,1020.16
2022-08-08T05:40:16.851Z,1020.20
2022-08-08T05:41:16.757Z,1020.19
2022-08-08T05:42:19.416Z,1020.16
2022-08-08T05:44:02.097Z,1020.17
2022-08-08T05:44:16.592Z,1020.23
2022-08-08T05:45:25.293Z,1020.19
2022-08-08T05:46:16.469Z,1020.18
2022-08-08T05:47:21.031Z,1020.22
2022-08-08T05:48:16.358Z,1020.20
2022-08-08T05:49:16.285Z,1020.28
2022-08-08T05:50:16.430Z,1020.26
2022-08-08T05:51:16.305Z,1020.30
2022-08-08T05:52:16.103Z,1020.27
2022-08-08T05:53:54.419Z,1020.28
2022-08-08T05:54:26.956Z,1020.29
2022-08-08T05:55:15.931Z,1020.30
2022-08-08T05:56:15.872Z,1020.36
2022-08-08T05:57:15.815Z,1020.30
2022-08-08T05:58:18.021Z,1020.35
2022-08-08T05:59:15.687Z,1020.33
2022-08-08T06:00:22.726Z,1020.36
2022-08-08T06:01:52.482Z,1020.36
2022-08-08T06:02:15.519Z,1020.36
2022-08-08T06:03:23.647Z,1020.39
2022-08-08T06:04:23.034Z,1020.40
2022-08-08T06:05:34.169Z,1020.41
2022-08-08T06:06:18.128Z,1020.36
2022-08-08T06:07:15.222Z,1020.36
2022-08-08T06:08:33.200Z,1020.36
2022-08-08T06:09:58.482Z,1020.34
2022-08-08T06:10:24.694Z,1020.39
2022-08-08T06:11:16.611Z,1020.38
2022-08-08T06:12:18.549Z,1020.40
2022-08-08T06:13:16.599Z,1020.40
2022-08-08T06:14:17.922Z,1020.41
2022-08-08T06:15:16.113Z,1020.43
2022-08-08T06:16:14.738Z,1020.43
2022-08-08T06:17:19.638Z,1020.41
2022-08-08T06:18:20.689Z,1020.43
2022-08-08T06:19:16.486Z,1020.41
2022-08-08T06:20:16.292Z,1020.41
2022-08-08T06:21:32.903Z,1020.45
2022-08-08T06:23:14.282Z,1020.41
2022-08-08T06:24:27.010Z,1020.43
2022-08-08T06:25:14.177Z,1020.42
2022-08-08T06:26:43.941Z,1020.36
2022-08-08T06:27:14.067Z,1020.39
2022-08-08T06:28:14.009Z,1020.43
2022-08-08T06:29:49.088Z,1020.45
2022-08-08T06:30:26.389Z,1020.44
2022-08-08T06:31:15.625Z,1020.43
2022-08-08T06:32:15.326Z,1020.49
2022-08-08T06:33:15.218Z,1020.52
2022-08-08T06:34:26.965Z,1020.54
2022-08-08T06:36:00.577Z,1020.53
2022-08-08T06:36:13.560Z,1020.52
2022-08-08T06:37:25.230Z,1020.55
2022-08-08T06:38:14.646Z,1020.55
2022-08-08T06:39:13.409Z,1020.51
2022-08-08T06:40:16.617Z,1020.54
2022-08-08T06:41:15.303Z,1020.52
2022-08-08T06:42:13.209Z,1020.55
2022-08-08T06:43:13.157Z,1020.56
2022-08-08T06:44:18.518Z,1020.54
2022-08-08T06:45:13.078Z,1020.57
2022-08-08T06:46:13.032Z,1020.56
2022-08-08T06:47:12.932Z,1020.55
2022-08-08T06:48:12.906Z,1020.55
2022-08-08T06:49:12.817Z,1020.52
2022-08-08T06:50:17.628Z,1020.54
2022-08-08T06:51:12.705Z,1020.56
2022-08-08T06:52:12.649Z,1020.53
2022-08-08T06:53:17.110Z,1020.58
2022-08-08T06:54:12.563Z,1020.57
2022-08-08T06:55:12.483Z,1020.62
2022-08-08T06:56:16.398Z,1020.58
2022-08-08T06:57:12.375Z,1020.60
2022-08-08T06:58:12.333Z,1020.61
2022-08-08T06:59:12.617Z,1020.59
2022-08-08T07:00:13.000Z,1020.62
2022-08-08T07:02:16.762Z,1020.60
2022-08-08T07:02:26.701Z,1020.61
2022-08-08T07:03:19.451Z,1020.63
2022-08-08T07:04:38.646Z,1020.64
2022-08-08T07:05:20.633Z,1020.60
2022-08-08T07:06:11.894Z,1020.66
2022-08-08T07:07:12.257Z,1020.67
2022-08-08T07:08:11.764Z,1020.67
2022-08-08T07:09:15.365Z,1020.64
2022-08-08T07:10:12.558Z,1020.63
2022-08-08T07:11:22.150Z,1020.66
2022-08-08T07:12:12.469Z,1020.66
2022-08-08T07:13:11.493Z,1020.61
2022-08-08T07:14:11.457Z,1020.66
2022-08-08T07:15:23.044Z,1020.64
2022-08-08T07:16:12.145Z,1020.65
2022-08-08T07:17:14.376Z,1020.67
2022-08-08T07:18:36.161Z,1020.70
2022-08-08T07:19:11.163Z,1020.72
2022-08-08T07:20:11.482Z,1020.71
2022-08-08T07:21:18.891Z,1020.68
2022-08-08T07:22:12.145Z,1020.75
2022-08-08T07:23:10.953Z,1020.73
2022-08-08T07:24:10.897Z,1020.76
2022-08-08T07:25:10.848Z,1020.74
2022-08-08T07:26:10.846Z,1020.77
2022-08-08T07:27:11.156Z,1020.77
2022-08-08T07:28:18.628Z,1020.77
2022-08-08T07:29:20.192Z,1020.74
2022-08-08T07:30:14.854Z,1020.76
2022-08-08T07:31:10.514Z,1020.77
2022-08-08T07:32:10.498Z,1020.78
2022-08-08T07:33:11.667Z,1020.74
2022-08-08T07:34:10.915Z,1020.79
2022-08-08T07:35:10.937Z,1020.75
2022-08-08T07:36:10.305Z,1020.79
2022-08-08T07:37:11.648Z,1020.77
2022-08-08T07:38:20.492Z,1020.78
2022-08-08T07:39:13.212Z,1020.79
2022-08-08T07:40:12.313Z,1020.79
2022-08-08T07:41:16.716Z,1020.79
2022-08-08T07:42:12.611Z,1020.84
2022-08-08T07:43:10.153Z,1020.80
2022-08-08T07:44:33.399Z,1020.77
2022-08-08T07:45:11.251Z,1020.82
2022-08-08T07:46:23.466Z,1020.83
2022-08-08T07:47:10.588Z,1020.81
2022-08-08T07:48:09.651Z,1020.85
2022-08-08T07:49:09.691Z,1020.87
2022-08-08T07:50:09.842Z,1020.87
2022-08-08T07:51:23.692Z,1020.89
2022-08-08T07:52:13.186Z,1020.89
2022-08-08T07:53:09.494Z,1020.92
2022-08-08T07:54:10.021Z,1020.92
2022-08-08T07:55:09.590Z,1020.93
2022-08-08T07:56:09.576Z,1020.94
2022-08-08T07:57:10.446Z,1020.96
2022-08-08T07:58:16.466Z,1020.92
2022-08-08T08:00:15.941Z,1020.94
2022-08-08T08:01:13.182Z,1020.96
2022-08-08T08:02:35.728Z,1021.00
2022-08-08T08:03:20.560Z,1020.99
2022-08-08T08:04:13.640Z,1021.01
2022-08-08T08:05:15.186Z,1021.01
2022-08-08T08:06:14.249Z,1021.00
2022-08-08T08:07:15.845Z,1020.98
2022-08-08T08:08:13.293Z,1021.00
2022-08-08T08:09:12.653Z,1020.99
2022-08-08T08:10:12.965Z,1020.98
2022-08-08T08:11:16.190Z,1020.96
2022-08-08T08:12:26.522Z,1021.01
2022-08-08T08:13:17.878Z,1020.99
2022-08-08T08:14:12.526Z,1020.98
2022-08-08T08:15:15.713Z,1021.00
2022-08-08T08:16:12.625Z,1021.06
2022-08-08T08:17:12.218Z,1021.01
2022-08-08T08:18:14.353Z,1020.96
2022-08-08T08:19:12.768Z,1020.97
2022-08-08T08:20:12.135Z,1020.96
2022-08-08T08:21:14.539Z,1020.96
2022-08-08T08:22:12.393Z,1020.98
2022-08-08T08:23:11.956Z,1020.98
2022-08-08T08:24:11.892Z,1020.99
2022-08-08T08:25:11.856Z,1020.98
2022-08-08T08:26:11.758Z,1020.96
2022-08-08T08:27:11.749Z,1020.98
2022-08-08T08:28:11.640Z,1020.95
2022-08-08T08:29:13.820Z,1020.95
2022-08-08T08:30:11.563Z,1020.94
2022-08-08T08:31:11.579Z,1020.94
2022-08-08T08:32:11.471Z,1020.94
2022-08-08T08:33:11.884Z,1020.92
2022-08-08T08:34:11.364Z,1020.97
2022-08-08T08:35:11.480Z,1020.99
2022-08-08T08:36:19.306Z,1020.98
2022-08-08T08:37:11.526Z,1021.00
2022-08-08T08:38:17.285Z,1021.03
2022-08-08T08:39:17.444Z,1021.02
2022-08-08T08:40:13.046Z,1021.04
2022-08-08T08:41:17.233Z,1021.04
2022-08-08T08:42:11.285Z,1021.07
2022-08-08T08:43:16.902Z,1021.07
2022-08-08T08:44:13.819Z,1021.11
2022-08-08T08:45:22.929Z,1021.11
2022-08-08T08:47:10.667Z,1021.07
2022-08-08T08:48:10.980Z,1021.07
2022-08-08T08:49:10.635Z,1021.06
2022-08-08T08:50:31.686Z,1021.08
2022-08-08T08:51:10.524Z,1021.09
2022-08-08T08:52:10.467Z,1021.06
2022-08-08T08:53:54.722Z,1021.05
2022-08-08T08:54:10.450Z,1021.05
2022-08-08T08:55:10.373Z,1021.06
2022-08-08T08:56:10.209Z,1021.05
2022-08-08T08:57:15.518Z,1021.04
2022-08-08T08:58:10.802Z,1021.04
2022-08-08T08:59:15.392Z,1021.05
2022-08-08T09:00:17.202Z,1021.06
2022-08-08T09:01:13.595Z,1021.04
2022-08-08T09:02:09.961Z,1021.02
2022-08-08T09:03:09.944Z,1021.07
2022-08-08T09:04:10.134Z,1021.04
2022-08-08T09:05:13.953Z,1021.07
2022-08-08T09:06:26.813Z,1021.08
2022-08-08T09:07:12.710Z,1021.06
2022-08-08T09:08:13.137Z,1021.00
2022-08-08T09:09:25.958Z,1021.03
2022-08-08T09:10:16.928Z,1021.04
2022-08-08T09:11:09.480Z,1021.03
2022-08-08T09:12:09.633Z,1021.05
2022-08-08T09:13:09.366Z,1021.04
2022-08-08T09:14:09.552Z,1021.03
2022-08-08T09:15:09.870Z,1021.02
2022-08-08T09:16:09.286Z,1021.05
2022-08-08T09:17:14.217Z,1021.05
2022-08-08T09:18:09.059Z,1021.09
2022-08-08T09:19:09.031Z,1021.03
2022-08-08T09:21:56.002Z,1021.02
2022-08-08T09:21:59.247Z,1021.04
2022-08-08T09:22:08.912Z,1020.98
2022-08-08T09:23:10.523Z,1021.00
2022-08-08T09:24:09.141Z,1021.01
2022-08-08T09:25:09.733Z,1021.00
2022-08-08T09:26:08.737Z,1020.97
2022-08-08T09:27:14.932Z,1020.96
2022-08-08T09:28:09.961Z,1020.96
2022-08-08T09:29:10.928Z,1020.95
2022-08-08T09:30:11.330Z,1020.96
2022-08-08T09:31:12.290Z,1020.95
2022-08-08T09:32:11.971Z,1021.01
2022-08-08T09:33:53.963Z,1020.99
2022-08-08T09:34:31.285Z,1020.92
2022-08-08T09:35:08.585Z,1020.93
2022-08-08T09:36:08.287Z,1020.89
2022-08-08T09:37:57.430Z,1020.90
2022-08-08T09:38:09.432Z,1020.86
2022-08-08T09:39:10.316Z,1020.89
2022-08-08T09:40:10.720Z,1020.87
2022-08-08T09:41:08.012Z,1020.88
2022-08-08T09:42:20.857Z,1020.89
2022-08-08T09:43:16.545Z,1020.90
2022-08-08T09:44:13.139Z,1020.91
2022-08-08T09:45:15.490Z,1020.92
2022-08-08T09:46:10.974Z,1020.96
2022-08-08T09:47:23.306Z,1020.94
2022-08-08T09:48:16.044Z,1020.94
2022-08-08T09:49:40.956Z,1020.92
2022-08-08T09:50:11.849Z,1020.87
2022-08-08T09:51:07.559Z,1020.88
2022-08-08T09:52:11.282Z,1020.84
2022-08-08T09:53:23.853Z,1020.88
2022-08-08T09:54:11.934Z,1020.86
2022-08-08T09:55:07.454Z,1020.88
2022-08-08T09:56:11.628Z,1020.84
2022-08-08T09:57:17.034Z,1020.85
2022-08-08T09:58:07.626Z,1020.85
2022-08-08T09:59:25.950Z,1020.86
2022-08-08T10:00:32.938Z,1020.86
2022-08-08T10:01:15.426Z,1020.83
2022-08-08T10:02:12.604Z,1020.83
2022-08-08T10:03:06.838Z,1020.86
2022-08-08T10:04:06.827Z,1020.79
2022-08-08T10:05:07.029Z,1020.81
2022-08-08T10:06:06.739Z,1020.80
2022-08-08T10:07:07.456Z,1020.75
2022-08-08T10:08:09.796Z,1020.79
2022-08-08T10:09:08.338Z,1020.78
2022-08-08T10:10:09.517Z,1020.82
2022-08-08T10:11:12.195Z,1020.80
2022-08-08T10:12:25.949Z,1020.78
2022-08-08T10:13:14.845Z,1020.80
2022-08-08T10:14:06.418Z,1020.79
2022-08-08T10:15:18.019Z,1020.73
2022-08-08T10:16:06.185Z,1020.79
2022-08-08T10:18:07.458Z,1020.76
2022-08-08T10:18:12.029Z,1020.76
2022-08-08T10:19:06.016Z,1020.76
2022-08-08T10:20:06.707Z,1020.77
2022-08-08T10:21:22.823Z,1020.79
2022-08-08T10:22:06.008Z,1020.74
2022-08-08T10:23:06.246Z,1020.74
2022-08-08T10:24:12.273Z,1020.72
2022-08-08T10:25:06.060Z,1020.72
2022-08-08T10:26:05.745Z,1020.72
2022-08-08T10:27:06.023Z,1020.68
2022-08-08T10:28:05.948Z,1020.63
2022-08-08T10:29:06.282Z,1020.71
2022-08-08T10:30:05.638Z,1020.65
2022-08-08T10:31:05.560Z,1020.69
2022-08-08T10:32:06.602Z,1020.62
2022-08-08T10:33:05.592Z,1020.65
2022-08-08T10:34:19.494Z,1020.61
2022-08-08T10:35:11.721Z,1020.60
2022-08-08T10:36:12.531Z,1020.59
2022-08-08T10:37:05.448Z,1020.62
2022-08-08T10:38:05.491Z,1020.61
2022-08-08T10:39:07.278Z,1020.61
2022-08-08T10:40:07.086Z,1020.59
2022-08-08T10:41:05.027Z,1020.62
2022-08-08T10:42:16.202Z,1020.63
2022-08-08T10:43:04.823Z,1020.61
2022-08-08T10:44:04.743Z,1020.65
2022-08-08T10:45:07.956Z,1020.65
2022-08-08T10:46:04.835Z,1020.66
2022-08-08T10:47:04.946Z,1020.66
2022-08-08T10:48:04.598Z,1020.66
2022-08-08T10:49:04.563Z,1020.63
2022-08-08T10:50:04.777Z,1020.63
2022-08-08T10:51:04.374Z,1020.63
2022-08-08T10:52:04.377Z,1020.65
2022-08-08T10:53:04.654Z,1020.64
2022-08-08T10:54:04.327Z,1020.63
2022-08-08T10:55:06.112Z,1020.64
2022-08-08T10:56:04.767Z,1020.67
2022-08-08T10:57:04.216Z,1020.64
2022-08-08T10:58:05.869Z,1020.65
2022-08-08T10:59:04.075Z,1020.67
2022-08-08T11:00:04.119Z,1020.57
2022-08-08T11:01:07.258Z,1020.55
2022-08-08T11:02:03.945Z,1020.61
2022-08-08T11:03:03.829Z,1020.60
2022-08-08T11:04:04.818Z,1020.59
2022-08-08T11:05:05.443Z,1020.59
2022-08-08T11:06:03.854Z,1020.54
2022-08-08T11:07:05.085Z,1020.56
2022-08-08T11:08:38.932Z,1020.55
2022-08-08T11:10:03.754Z,1020.58
2022-08-08T11:11:08.061Z,1020.59
2022-08-08T11:12:13.117Z,1020.59
2022-08-08T11:13:31.942Z,1020.55
2022-08-08T11:14:03.200Z,1020.55
2022-08-08T11:15:03.120Z,1020.57
2022-08-08T11:16:07.810Z,1020.56
2022-08-08T11:17:03.017Z,1020.57
2022-08-08T11:18:02.985Z,1020.60
2022-08-08T11:19:02.930Z,1020.57
2022-08-08T11:20:10.670Z,1020.58
2022-08-08T11:21:09.943Z,1020.55
2022-08-08T11:22:04.240Z,1020.57
2022-08-08T11:23:05.404Z,1020.53
2022-08-08T11:24:03.028Z,1020.53
2022-08-08T11:27:10.530Z,1020.56
2022-08-08T11:28:04.265Z,1020.51
2022-08-08T11:29:02.718Z,1020.50
2022-08-08T11:32:02.385Z,1020.52
2022-08-08T11:34:34.335Z,1020.56
2022-08-08T11:35:24.482Z,1020.57
2022-08-08T11:37:14.749Z,1020.56
2022-08-08T11:38:38.834Z,1020.54
2022-08-08T11:40:02.047Z,1020.50
2022-08-08T11:41:01.900Z,1020.50
2022-08-08T11:42:01.832Z,1020.46
2022-08-08T11:43:01.801Z,1020.44
2022-08-08T11:44:01.975Z,1020.45
2022-08-08T11:45:01.723Z,1020.46
2022-08-08T11:46:13.346Z,1020.43
2022-08-08T11:47:01.554Z,1020.40
2022-08-08T11:48:02.858Z,1020.41
2022-08-08T11:49:04.030Z,1020.45
2022-08-08T11:50:01.374Z,1020.43
2022-08-08T11:51:01.484Z,1020.37
2022-08-08T11:52:03.318Z,1020.43
2022-08-08T11:53:06.201Z,1020.38
2022-08-08T11:54:02.425Z,1020.34
2022-08-08T11:55:01.997Z,1020.36
2022-08-08T11:56:01.583Z,1020.36
2022-08-08T11:57:01.122Z,1020.37
2022-08-08T11:58:04.219Z,1020.32
2022-08-08T11:59:58.710Z,1020.32
2022-08-08T12:00:06.199Z,1020.29
2022-08-08T12:03:45.825Z,1020.35
2022-08-08T12:04:43.848Z,1020.33
2022-08-08T12:06:39.438Z,1020.32
2022-08-08T12:07:36.467Z,1020.35
2022-08-08T12:08:36.376Z,1020.31
2022-08-08T12:09:40.758Z,1020.35
2022-08-08T12:10:36.533Z,1020.37
2022-08-08T12:11:36.182Z,1020.30
2022-08-08T12:12:36.094Z,1020.32
2022-08-08T12:14:02.701Z,1020.31
2022-08-08T12:14:36.412Z,1020.31
2022-08-08T12:15:42.999Z,1020.29
2022-08-08T12:16:46.500Z,1020.29
2022-08-08T12:17:36.072Z,1020.27
2022-08-08T12:18:35.764Z,1020.26
2022-08-08T12:19:50.926Z,1020.23
2022-08-08T12:20:35.745Z,1020.25